createdAt,value
2023-01-09T00:01:29.596Z,97600.69
2023-01-09T00:03:56.388Z,97612.47
2023-01-09T00:06:23.242Z,97603.34
2023-01-09T00:08:50.197Z,97605.94
2023-01-09T00:11:17.052Z,97601.78
2023-01-09T00:13:44.078Z,97610.38
2023-01-09T00:16:10.856Z,97619.72
2023-01-09T00:18:37.695Z,97616.28
2023-01-09T00:21:07.781Z,97618.88
2023-01-09T00:23:35.271Z,97633.19
2023-01-09T00:26:12.306Z,97628.94
2023-01-09T00:28:40.295Z,97638.31
2023-01-09T00:31:08.461Z,97639.97
2023-01-09T00:33:45.523Z,97639.13
2023-01-09T00:36:12.718Z,97640.84
2023-01-09T00:38:39.770Z,97643.38
2023-01-09T00:41:11.659Z,97647.56
2023-01-09T00:43:46.881Z,97647.56
2023-01-09T00:46:15.734Z,97648.41
2023-01-09T00:48:47.586Z,97656.88
2023-01-09T00:51:16.328Z,97648.56
2023-01-09T00:53:43.795Z,97646.06
2023-01-09T00:56:18.133Z,97650.31
2023-01-09T00:58:45.686Z,97639.44
2023-01-09T01:01:12.899Z,97641.09
2023-01-09T01:03:39.772Z,97644.50
2023-01-09T01:06:25.709Z,97648.75
2023-01-09T01:08:52.451Z,97636.22
2023-01-09T01:11:19.161Z,97645.53
2023-01-09T01:13:46.111Z,97648.13
2023-01-09T01:16:13.632Z,97655.75
2023-01-09T01:18:41.468Z,97657.47
2023-01-09T01:21:10.673Z,97655.88
2023-01-09T01:23:38.576Z,97655.13
2023-01-09T01:26:09.262Z,97656.91
2023-01-09T01:28:36.219Z,97659.56
2023-01-09T01:31:03.650Z,97669.75
2023-01-09T01:33:31.693Z,97657.19
2023-01-09T01:36:09.667Z,97665.75
2023-01-09T01:38:36.954Z,97671.72
2023-01-09T01:41:05.272Z,97673.47
2023-01-09T01:43:54.806Z,97662.69
2023-01-09T01:46:22.343Z,97682.16
2023-01-09T01:48:55.629Z,97689.78
2023-01-09T01:51:28.727Z,97689.78
2023-01-09T01:54:03.767Z,97694.78
2023-01-09T01:56:42.239Z,97685.44
2023-01-09T01:59:21.518Z,97689.53
2023-01-09T02:01:53.603Z,97688.59
2023-01-09T02:04:20.798Z,97705.38
2023-01-09T02:06:52.079Z,97705.28
2023-01-09T02:09:22.751Z,97706.84
2023-01-09T02:11:56.295Z,97700.88
2023-01-09T02:14:31.777Z,97714.31
2023-01-09T02:17:43.589Z,97710.06
2023-01-09T02:20:19.038Z,97709.25
2023-01-09T02:23:16.828Z,97720.19
2023-01-09T02:26:31.835Z,97721.88
2023-01-09T02:29:45.784Z,97725.22
2023-01-09T02:32:59.583Z,97715.16
2023-01-09T02:35:44.551Z,97723.66
2023-01-09T02:38:47.482Z,97717.81
2023-01-09T02:41:48.206Z,97723.84
2023-01-09T02:44:23.160Z,97716.34
2023-01-09T02:47:04.029Z,97716.44
2023-01-09T02:49:33.789Z,97720.72
2023-01-09T02:52:31.548Z,97725.03
2023-01-09T02:55:28.729Z,97736.16
2023-01-09T02:58:46.823Z,97737.09
2023-01-09T03:01:48.089Z,97736.41
2023-01-09T03:04:52.183Z,97730.50
2023-01-09T03:07:42.205Z,97738.13
2023-01-09T03:10:20.001Z,97738.13
2023-01-09T03:12:52.417Z,97732.31
2023-01-09T03:15:26.220Z,97728.94
2023-01-09T03:17:55.050Z,97720.59
2023-01-09T03:20:27.480Z,97718.09
2023-01-09T03:23:01.164Z,97723.19
2023-01-09T03:25:30.685Z,97712.31
2023-01-09T03:28:13.050Z,97714.91
2023-01-09T03:30:39.762Z,97714.13
2023-01-09T03:33:06.579Z,97722.63
2023-01-09T03:35:33.301Z,97725.19
2023-01-09T03:38:00.045Z,97726.06
2023-01-09T03:40:26.764Z,97723.63
2023-01-09T03:42:53.512Z,97732.94
2023-01-09T03:45:20.302Z,97727.97
2023-01-09T03:47:47.034Z,97728.84
2023-01-09T03:50:13.838Z,97727.22
2023-01-09T03:52:41.289Z,97734.84
2023-01-09T03:55:08.501Z,97727.31
2023-01-09T03:57:35.232Z,97729.94
2023-01-09T04:00:02.050Z,97740.84
2023-01-09T04:02:28.778Z,97747.66
2023-01-09T04:04:55.528Z,97747.66
2023-01-09T04:07:22.247Z,97750.25
2023-01-09T04:09:48.932Z,97759.50
2023-01-09T04:12:15.717Z,97759.44
2023-01-09T04:14:42.444Z,97754.34
2023-01-09T04:17:09.184Z,97761.88
2023-01-09T04:19:35.970Z,97764.28
2023-01-09T04:22:02.676Z,97770.16
2023-01-09T04:24:29.469Z,97774.19
2023-01-09T04:26:56.412Z,97767.38
2023-01-09T04:29:23.183Z,97777.34
2023-01-09T04:31:49.957Z,97779.72
2023-01-09T04:34:16.923Z,97780.53
2023-01-09T04:36:43.760Z,97776.94
2023-01-09T04:39:10.559Z,97771.91
2023-01-09T04:41:49.463Z,97772.59
2023-01-09T04:44:22.418Z,97765.81
2023-01-09T04:46:49.357Z,97767.47
2023-01-09T04:49:16.124Z,97769.91
2023-01-09T04:51:42.899Z,97757.13
2023-01-09T04:54:10.248Z,97762.88
2023-01-09T04:56:37.536Z,97765.28
2023-01-09T04:59:06.347Z,97766.88
2023-01-09T05:01:33.545Z,97762.56
2023-01-09T05:04:00.672Z,97765.84
2023-01-09T05:06:27.631Z,97764.94
2023-01-09T05:08:54.816Z,97773.31
2023-01-09T05:11:21.970Z,97763.09
2023-01-09T05:13:48.761Z,97756.31
2023-01-09T05:16:15.634Z,97765.47
2023-01-09T05:18:42.386Z,97768.78
2023-01-09T05:21:09.269Z,97764.50
2023-01-09T05:23:36.173Z,97773.75
2023-01-09T05:26:04.256Z,97780.41
2023-01-09T05:28:32.577Z,97775.34
2023-01-09T05:30:59.646Z,97789.63
2023-01-09T05:33:27.795Z,97799.63
2023-01-09T05:35:56.591Z,97792.84
2023-01-09T05:38:23.780Z,97791.97
2023-01-09T05:40:53.553Z,97794.44
2023-01-09T05:43:24.826Z,97801.06
2023-01-09T05:45:51.624Z,97799.31
2023-01-09T05:48:18.494Z,97789.16
2023-01-09T05:50:45.234Z,97802.50
2023-01-09T05:53:11.948Z,97801.66
2023-01-09T05:55:38.739Z,97785.66
2023-01-09T05:58:05.427Z,97789.84
2023-01-09T06:00:32.313Z,97786.41
2023-01-09T06:02:59.761Z,97788.94
2023-01-09T06:05:26.570Z,97791.47
2023-01-09T06:07:53.266Z,97789.00
2023-01-09T06:10:20.198Z,97784.00
2023-01-09T06:12:50.455Z,97781.56
2023-01-09T06:15:18.120Z,97790.94
2023-01-09T06:17:44.870Z,97797.72
2023-01-09T06:20:11.969Z,97809.50
2023-01-09T06:22:38.705Z,97798.59
2023-01-09T06:25:06.163Z,97798.53
2023-01-09T06:27:32.913Z,97794.28
2023-01-09T06:29:59.622Z,97800.94
2023-01-09T06:32:26.448Z,97801.81
2023-01-09T06:34:53.265Z,97795.03
2023-01-09T06:37:19.952Z,97789.06
2023-01-09T06:39:46.977Z,97805.03
2023-01-09T06:42:13.687Z,97787.28
2023-01-09T06:44:40.511Z,97782.16
2023-01-09T06:47:07.311Z,97791.31
2023-01-09T06:49:35.972Z,97795.50
2023-01-09T06:52:07.838Z,97785.28
2023-01-09T06:54:35.559Z,97786.06
2023-01-09T06:57:02.402Z,97789.41
2023-01-09T06:59:29.129Z,97780.91
2023-01-09T07:01:55.948Z,97796.78
2023-01-09T07:04:23.133Z,97799.25
2023-01-09T07:06:50.107Z,97796.69
2023-01-09T07:09:16.890Z,97787.44
2023-01-09T07:11:43.646Z,97771.34
2023-01-09T07:14:10.575Z,97789.00
2023-01-09T07:16:37.318Z,97787.28
2023-01-09T07:19:04.152Z,97778.81
2023-01-09T07:21:32.718Z,97784.69
2023-01-09T07:23:59.736Z,97796.44
2023-01-09T07:26:26.473Z,97803.16
2023-01-09T07:28:54.413Z,97798.03
2023-01-09T07:31:27.391Z,97795.50
2023-01-09T07:33:54.155Z,97803.91
2023-01-09T07:36:20.955Z,97787.91
2023-01-09T07:38:48.559Z,97806.50
2023-01-09T07:41:15.459Z,97807.31
2023-01-09T07:43:42.201Z,97807.25
2023-01-09T07:46:09.129Z,97821.56
2023-01-09T07:48:36.068Z,97824.91
2023-01-09T07:51:02.892Z,97815.53
2023-01-09T07:53:29.685Z,97813.84
2023-01-09T07:55:56.438Z,97823.06
2023-01-09T07:58:23.136Z,97829.75
2023-01-09T08:00:51.012Z,97817.97
2023-01-09T08:03:17.876Z,97833.94
2023-01-09T08:05:45.780Z,97840.56
2023-01-09T08:08:14.277Z,97838.94
2023-01-09T08:10:41.361Z,97856.59
2023-01-09T08:13:08.137Z,97846.41
2023-01-09T08:15:35.473Z,97856.50
2023-01-09T08:18:02.226Z,97864.03
2023-01-09T08:20:28.918Z,97856.44
2023-01-09T08:22:56.759Z,97869.91
2023-01-09T08:25:24.109Z,97863.16
2023-01-09T08:27:50.930Z,97871.50
2023-01-09T08:30:18.667Z,97879.06
2023-01-09T08:32:50.973Z,97867.19
2023-01-09T08:35:18.152Z,97873.94
2023-01-09T08:37:47.454Z,97875.59
2023-01-09T08:40:16.317Z,97890.72
2023-01-09T08:43:02.274Z,97895.81
2023-01-09T08:45:48.675Z,97909.28
2023-01-09T08:48:16.957Z,97889.13
2023-01-09T08:50:44.546Z,97910.19
2023-01-09T08:53:12.070Z,97915.13
2023-01-09T08:55:39.115Z,97920.09
2023-01-09T08:58:05.852Z,97919.22
2023-01-09T09:00:32.644Z,97925.16
2023-01-09T09:03:01.339Z,97919.97
2023-01-09T09:05:30.676Z,97926.69
2023-01-09T09:07:58.865Z,97933.44
2023-01-09T09:10:29.974Z,97922.41
2023-01-09T09:12:59.027Z,97925.69
2023-01-09T09:15:29.669Z,97924.81
2023-01-09T09:18:00.786Z,97932.22
2023-01-09T09:20:37.643Z,97915.19
2023-01-09T09:23:05.628Z,97925.28
2023-01-09T09:25:32.474Z,97936.16
2023-01-09T09:28:01.036Z,97925.94
2023-01-09T09:30:28.120Z,97944.38
2023-01-09T09:32:55.042Z,97933.31
2023-01-09T09:35:22.563Z,97946.91
2023-01-09T09:37:57.704Z,97951.81
2023-01-09T09:41:37.260Z,97950.81
2023-01-09T09:44:48.337Z,97964.38
2023-01-09T09:47:56.584Z,97956.75
2023-01-09T09:51:03.644Z,97971.84
2023-01-09T09:53:53.488Z,97969.38
2023-01-09T09:56:33.267Z,97981.16
2023-01-09T09:59:12.688Z,97986.13
2023-01-09T10:02:56.057Z,97986.00
2023-01-09T10:05:35.061Z,97998.69
2023-01-09T10:09:18.313Z,98005.06
2023-01-09T10:11:54.934Z,97997.34
2023-01-09T10:14:31.934Z,98011.97
2023-01-09T10:17:56.926Z,98011.53
2023-01-09T10:27:58.068Z,98006.66
2023-01-09T10:30:42.454Z,98017.69
2023-01-09T10:33:44.289Z,98008.53
2023-01-09T10:36:39.344Z,98005.16
2023-01-09T10:39:20.589Z,98029.91
2023-01-09T10:42:05.409Z,98024.16
2023-01-09T10:44:44.028Z,98023.44
2023-01-09T10:47:27.451Z,98036.38
2023-01-09T10:49:56.597Z,98023.94
2023-01-09T10:52:35.169Z,98026.63
2023-01-09T10:55:19.658Z,98027.63
2023-01-09T10:58:02.372Z,98027.88
2023-01-09T11:00:29.230Z,98030.50
2023-01-09T11:02:56.053Z,98037.34
2023-01-09T11:05:27.996Z,98039.09
2023-01-09T11:08:09.020Z,98040.09
2023-01-09T11:10:50.228Z,98036.94
2023-01-09T11:13:33.155Z,98039.72
2023-01-09T11:16:21.857Z,98037.31
2023-01-09T11:18:59.304Z,98048.50
2023-01-09T11:21:39.043Z,98052.59
2023-01-09T11:24:28.813Z,98056.63
2023-01-09T11:27:24.344Z,98065.66
2023-01-09T11:30:26.423Z,98066.22
2023-01-09T11:32:55.746Z,98067.81
2023-01-09T11:35:35.089Z,98076.97
2023-01-09T11:38:14.900Z,98067.69
2023-01-09T11:41:06.574Z,98065.09
2023-01-09T11:43:38.175Z,98066.88
2023-01-09T11:46:10.009Z,98065.22
2023-01-09T11:48:57.235Z,98065.28
2023-01-09T11:51:36.752Z,98069.00
2023-01-09T11:54:25.965Z,98081.81
2023-01-09T11:56:53.015Z,98091.00
2023-01-09T11:59:25.435Z,98101.69
2023-01-09T12:01:58.005Z,98094.53
2023-01-09T12:04:48.633Z,98093.44
2023-01-09T12:08:08.192Z,98099.19
2023-01-09T12:10:44.175Z,98098.47
2023-01-09T12:13:16.613Z,98102.66
2023-01-09T12:16:16.045Z,98116.25
2023-01-09T12:19:12.101Z,98117.34
2023-01-09T12:21:52.172Z,98115.06
2023-01-09T12:24:49.977Z,98115.25
2023-01-09T12:27:59.627Z,98126.38
2023-01-09T12:30:53.371Z,98119.75
2023-01-09T12:33:47.262Z,98126.53
2023-01-09T12:36:47.825Z,98138.41
2023-01-09T12:39:21.374Z,98135.03
2023-01-09T12:42:07.264Z,98137.47
2023-01-09T12:44:53.107Z,98135.75
2023-01-09T12:47:50.872Z,98147.56
2023-01-09T12:50:31.019Z,98160.25
2023-01-09T12:54:05.863Z,98158.53
2023-01-09T12:57:12.335Z,98162.97
2023-01-09T12:59:46.525Z,98156.16
2023-01-09T13:02:32.634Z,98158.69
2023-01-09T13:05:37.689Z,98161.34
2023-01-09T13:08:24.386Z,98166.56
2023-01-09T13:11:18.891Z,98170.81
2023-01-09T13:14:02.255Z,98173.63
2023-01-09T13:16:41.943Z,98185.59
2023-01-09T13:19:27.518Z,98190.00
2023-01-09T13:21:56.228Z,98192.84
2023-01-09T13:24:30.858Z,98194.66
2023-01-09T13:27:05.209Z,98199.06
2023-01-09T13:29:43.721Z,98191.56
2023-01-09T13:32:44.022Z,98191.66
2023-01-09T13:35:15.025Z,98190.03
2023-01-09T13:37:43.264Z,98191.66
2023-01-09T13:40:18.965Z,98201.75
2023-01-09T13:42:58.202Z,98198.41
2023-01-09T13:45:28.946Z,98200.06
2023-01-09T13:48:19.072Z,98205.91
2023-01-09T13:50:48.355Z,98216.00
2023-01-09T13:53:17.992Z,98221.88
2023-01-09T13:56:03.033Z,98208.31
2023-01-09T13:58:58.147Z,98215.88
2023-01-09T14:01:24.916Z,98224.38
2023-01-09T14:04:09.830Z,98232.78
2023-01-09T14:06:36.959Z,98241.25
2023-01-09T14:09:22.687Z,98248.91
2023-01-09T14:12:03.261Z,98246.41
2023-01-09T14:14:33.652Z,98241.41
2023-01-09T14:17:03.345Z,98252.38
2023-01-09T14:19:38.643Z,98260.03
2023-01-09T14:22:07.457Z,98255.13
2023-01-09T14:24:43.388Z,98263.59
2023-01-09T14:28:08.980Z,98280.63
2023-01-09T14:30:59.539Z,98286.78
2023-01-09T14:33:30.728Z,98298.63
2023-01-09T14:36:29.151Z,98298.63
2023-01-09T14:39:04.029Z,98305.44
2023-01-09T14:42:00.473Z,98312.28
2023-01-09T14:44:50.551Z,98320.00
2023-01-09T14:47:31.117Z,98328.56
2023-01-09T14:50:35.804Z,98331.19
2023-01-09T14:53:13.368Z,98342.44
2023-01-09T14:55:53.560Z,98354.25
2023-01-09T14:58:32.680Z,98363.59
2023-01-09T15:01:05.472Z,98367.88
2023-01-09T15:03:51.461Z,98373.88
2023-01-09T15:06:28.967Z,98378.94
2023-01-09T15:09:27.059Z,98390.84
2023-01-09T15:12:01.926Z,98388.41
2023-01-09T15:14:40.570Z,98396.09
2023-01-09T15:17:23.270Z,98395.25
2023-01-09T15:19:50.883Z,98398.69
2023-01-09T15:22:36.983Z,98403.69
2023-01-09T15:25:40.062Z,98409.75
2023-01-09T15:28:30.808Z,98416.63
2023-01-09T15:31:09.791Z,98425.97
2023-01-09T15:33:40.806Z,98425.13
2023-01-09T15:36:21.694Z,98431.91
2023-01-09T15:38:51.154Z,98439.56
2023-01-09T15:41:44.359Z,98429.50
2023-01-09T15:44:27.997Z,98441.44
2023-01-09T15:47:01.196Z,98446.56
2023-01-09T15:49:29.027Z,98450.81
2023-01-09T15:51:56.805Z,98454.25
2023-01-09T15:54:32.797Z,98465.28
2023-01-09T15:57:27.006Z,98469.63
2023-01-09T15:59:55.816Z,98470.59
2023-01-09T16:02:44.199Z,98476.53
2023-01-09T16:05:19.107Z,98486.72
2023-01-09T16:07:51.360Z,98482.53
2023-01-09T16:10:25.083Z,98481.72
2023-01-09T16:12:54.486Z,98485.16
2023-01-09T16:15:22.379Z,98495.28
2023-01-09T16:18:13.802Z,98492.78
2023-01-09T16:20:40.917Z,98500.44
2023-01-09T16:23:28.944Z,98520.69
2023-01-09T16:26:14.296Z,98517.41
2023-01-09T16:28:42.762Z,98523.38
2023-01-09T16:31:27.973Z,98528.47
2023-01-09T16:34:18.232Z,98541.19
2023-01-09T16:36:45.272Z,98536.97
2023-01-09T16:39:15.604Z,98548.81
2023-01-09T16:42:02.503Z,98545.44
2023-01-09T16:44:29.196Z,98551.41
2023-01-09T16:46:56.618Z,98542.94
2023-01-09T16:49:27.280Z,98546.28
2023-01-09T16:51:55.136Z,98562.31
2023-01-09T16:54:22.074Z,98566.53
2023-01-09T16:56:53.185Z,98583.41
2023-01-09T16:59:27.463Z,98577.50
2023-01-09T17:01:55.525Z,98573.31
2023-01-09T17:04:23.922Z,98581.72
2023-01-09T17:07:02.511Z,98580.91
2023-01-09T17:18:06.774Z,98589.56
2023-01-09T17:39:18.953Z,98628.41
2023-01-09T17:41:45.662Z,98633.47
2023-01-09T17:44:12.708Z,98638.53
2023-01-09T17:46:43.418Z,98641.00
2023-01-09T17:49:20.325Z,98642.69
2023-01-09T17:51:47.164Z,98651.13
2023-01-09T17:54:14.484Z,98651.13
2023-01-09T17:56:46.150Z,98653.63
2023-01-09T17:59:14.944Z,98656.16
2023-01-09T18:01:43.996Z,98654.44
2023-01-09T18:04:11.609Z,98661.19
2023-01-09T18:06:38.455Z,98669.59
2023-01-09T18:09:06.927Z,98673.78
2023-01-09T18:11:33.778Z,98682.16
2023-01-09T18:14:00.743Z,98689.69
2023-01-09T18:16:28.680Z,98696.44
2023-01-09T18:18:58.627Z,98689.66
2023-01-09T18:21:28.208Z,98701.44
2023-01-09T18:23:56.584Z,98707.34
2023-01-09T18:26:24.016Z,98717.44
2023-01-09T18:28:56.111Z,98719.09
2023-01-09T18:31:24.610Z,98724.16
2023-01-09T18:33:54.517Z,98726.66
2023-01-09T18:36:29.078Z,98735.03
2023-01-09T18:38:59.368Z,98740.09
2023-01-09T18:41:26.478Z,98733.38
2023-01-09T18:43:57.540Z,98742.63
2023-01-09T18:46:25.568Z,98749.38
2023-01-09T18:49:05.422Z,98750.22
2023-01-09T18:51:36.217Z,98759.56
2023-01-09T18:54:03.869Z,98766.31
2023-01-09T18:56:30.659Z,98783.19
2023-01-09T18:58:58.046Z,98776.44
2023-01-09T19:01:27.743Z,98777.31
2023-01-09T19:03:57.083Z,98789.13
2023-01-09T19:06:24.274Z,98793.34
2023-01-09T19:09:22.655Z,98800.09
2023-01-09T19:11:49.416Z,98797.59
2023-01-09T19:14:27.485Z,98813.63
2023-01-09T19:17:14.505Z,98817.91
2023-01-09T19:19:41.288Z,98820.38
2023-01-09T19:22:08.128Z,98817.91
2023-01-09T19:24:35.452Z,98828.91
2023-01-09T19:27:10.626Z,98834.81
2023-01-09T19:29:39.649Z,98840.69
2023-01-09T19:32:08.523Z,98840.75
2023-01-09T19:34:35.816Z,98845.78
2023-01-09T19:37:02.793Z,98850.88
2023-01-09T19:39:29.552Z,98860.13
2023-01-09T19:41:59.201Z,98868.59
2023-01-09T19:44:26.048Z,98878.72
2023-01-09T19:46:57.443Z,98885.47
2023-01-09T19:49:24.446Z,98889.72
2023-01-09T19:51:54.932Z,98893.13
2023-01-09T19:54:21.893Z,98905.88
2023-01-09T19:56:48.755Z,98910.97
2023-01-09T19:59:15.877Z,98924.50
2023-01-09T20:01:43.468Z,98919.53
2023-01-09T20:04:15.951Z,98928.00
2023-01-09T20:07:09.498Z,98933.97
2023-01-09T20:09:36.235Z,98940.78
2023-01-09T20:12:14.673Z,98947.56
2023-01-09T20:14:44.950Z,98958.53
2023-01-09T20:17:11.919Z,98961.88
2023-01-09T20:22:30.715Z,98977.13
2023-01-09T20:24:57.432Z,98979.63
2023-01-09T20:27:29.963Z,98989.78
2023-01-09T20:29:56.814Z,98993.16
2023-01-09T20:32:25.841Z,98993.16
2023-01-09T20:35:02.240Z,98997.38
2023-01-09T20:37:29.430Z,99005.00
2023-01-09T20:39:56.219Z,99007.53
2023-01-09T20:42:24.067Z,99011.75
2023-01-09T20:44:50.936Z,99005.81
2023-01-09T20:47:17.661Z,99010.06
2023-01-09T20:49:44.422Z,99010.91
2023-01-09T20:52:11.253Z,99021.06
2023-01-09T20:54:41.026Z,99026.97
2023-01-09T20:57:07.879Z,99040.47
2023-01-09T20:59:34.706Z,99040.47
2023-01-09T21:02:01.449Z,99047.22
2023-01-09T21:04:29.495Z,99045.56
2023-01-09T21:06:56.284Z,99042.19
2023-01-09T21:09:25.312Z,99059.88
2023-01-09T21:11:52.083Z,99063.72
2023-01-09T21:14:18.938Z,99069.63
2023-01-09T21:16:54.194Z,99065.59
2023-01-09T21:19:22.553Z,99078.34
2023-01-09T21:21:51.603Z,99082.63
2023-01-09T21:24:19.694Z,99083.53
2023-01-09T21:26:46.473Z,99087.78
2023-01-09T21:29:13.385Z,99097.91
2023-01-09T21:31:40.189Z,99096.28
2023-01-09T21:34:08.019Z,99093.78
2023-01-09T21:36:36.122Z,99109.81
2023-01-09T21:39:07.844Z,99115.72
2023-01-09T21:41:54.260Z,99118.25
2023-01-09T21:44:39.854Z,99125.03
2023-01-09T21:47:06.630Z,99131.78
2023-01-09T21:49:35.212Z,99141.91
2023-01-09T21:52:04.386Z,99141.09
2023-01-09T21:54:33.321Z,99131.84
2023-01-09T21:57:01.586Z,99132.69
2023-01-09T21:59:29.113Z,99141.94
2023-01-09T22:01:56.160Z,99154.56
2023-01-09T22:04:28.316Z,99159.63
2023-01-09T22:06:55.860Z,99156.25
2023-01-09T22:09:22.749Z,99169.72
2023-01-09T22:11:49.491Z,99167.19
2023-01-09T22:14:19.074Z,99181.53
2023-01-09T22:16:50.596Z,99188.28
2023-01-09T22:19:18.047Z,99184.91
2023-01-09T22:21:45.569Z,99209.31
2023-01-09T22:24:18.293Z,99208.47
2023-01-09T22:26:45.954Z,99214.38
2023-01-09T22:29:12.809Z,99217.72
2023-01-09T22:31:40.540Z,99225.31
2023-01-09T22:34:07.425Z,99216.06
2023-01-09T22:36:34.289Z,99216.91
2023-01-09T22:39:01.284Z,99220.28
2023-01-09T22:41:30.398Z,99221.97
2023-01-09T22:43:57.672Z,99230.38
2023-01-09T22:46:25.500Z,99245.53
2023-01-09T22:48:52.284Z,99237.97
2023-01-09T22:51:21.437Z,99242.16
2023-01-09T22:53:49.781Z,99240.47
2023-01-09T22:56:20.927Z,99257.34
2023-01-09T22:58:53.327Z,99254.81
2023-01-09T23:01:22.074Z,99264.91
2023-01-09T23:03:49.234Z,99259.88
2023-01-09T23:06:22.349Z,99264.06
2023-01-09T23:08:51.686Z,99276.69
2023-01-09T23:11:47.006Z,99275.81
2023-01-09T23:14:14.125Z,99282.53
2023-01-09T23:16:41.478Z,99293.50
2023-01-09T23:19:09.756Z,99293.50
2023-01-09T23:21:37.104Z,99301.06
2023-01-09T23:24:06.783Z,99309.47
2023-01-09T23:26:34.591Z,99317.06
2023-01-09T23:29:02.089Z,99312.81
2023-01-09T23:31:28.872Z,99320.41
2023-01-09T23:33:55.648Z,99326.31
2023-01-09T23:36:22.536Z,99329.66
2023-01-09T23:38:49.882Z,99331.34
2023-01-09T23:41:17.143Z,99344.84
2023-01-09T23:43:44.901Z,99349.06
2023-01-09T23:46:12.568Z,99356.63
2023-01-09T23:48:39.329Z,99359.16
2023-01-09T23:51:06.272Z,99365.06
2023-01-09T23:53:33.239Z,99361.69
2023-01-09T23:56:01.107Z,99365.06
2023-01-09T23:58:28.023Z,99366.75
